Franklinton, Louisiana
Current Conditions -  °F | °C
As of 6:01 PM on Thursday 18 Dec 2014 (Local Time) from KMCB Reporting Station
Haze Haze  
Wind Chill: 50°   Ceiling: 400
Heat Index: 50°   Visibility: 6mi
Dew Point: 48°   Wind: 3mph
Humidity: 93%   Direction: 40°NE
Pressure: 30.13"   Gusts: NA
Location:  30.85°N, 90.15°W
Report Text: KMCB 190001Z AUTO 04003KT 6SM BR BKN004 OVC028 10/09 A3013 RMK AO2 T01000089 $
Loading
Personal Weather Stations






























Interactive Weather Map New forecast layout! Learn more

10-Day Weather Forecast

Advertisements
Track Severe Weather on mobile